Time;durP1;ratioP1;P1;durP2;ratioP2;P2;SDS_P1;SDS_P2;PMS_P1;PMS_P2;Temp;Humidity;BMP_temperature;BMP_pressure;BME280_temperature;BME280_humidity;BME280_pressure;Samples;Min_cycle;Max_cycle;Signal;HPM_P1;HPM_P2
2023/01/13 00:00:16;;;;;;;66.70;36.10;;;;;;;1.10;83.15;98652.81;89852;1270;22522;-72
2023/01/13 00:02:37;;;;;;;72.70;36.50;;;;;;;1.08;83.34;98653.20;90000;1265;24258;-72
2023/01/13 00:04:39;;;;;;;75.50;37.50;;;;;;;1.09;83.18;98652.50;89895;1270;98739;-73
2023/01/13 00:06:41;;;;;;;68.80;37.50;;;;;;;1.09;83.47;98651.10;89940;1271;22855;-72
2023/01/13 00:08:43;;;;;;;63.40;34.50;;;;;;;1.10;83.27;98652.83;89864;1263;22600;-72
2023/01/13 00:10:47;;;;;;;68.10;35.10;;;;;;;1.10;83.40;98644.17;89740;1270;98789;-71
2023/01/13 00:12:50;;;;;;;62.00;34.00;;;;;;;1.12;83.15;98640.70;89833;1271;22522;-72
2023/01/13 00:14:51;;;;;;;72.10;34.20;;;;;;;1.15;83.66;98638.39;89861;1264;22603;-72
2023/01/13 00:16:53;;;;;;;66.80;34.40;;;;;;;1.17;83.51;98635.06;89758;1269;98105;-71
2023/01/13 00:18:55;;;;;;;63.90;32.70;;;;;;;1.20;83.42;98635.55;89946;1268;22546;-73
2023/01/13 00:21:12;;;;;;;63.60;32.80;;;;;;;1.23;83.62;98641.38;90073;1268;25305;-72
2023/01/13 00:23:13;;;;;;;57.20;31.60;;;;;;;1.25;83.28;98640.84;89976;1264;22544;-71
2023/01/13 00:25:15;;;;;;;53.80;31.80;;;;;;;1.24;83.49;98642.23;89940;1271;22584;-71
2023/01/13 00:27:17;;;;;;;54.90;30.90;;;;;;;1.24;83.57;98643.29;89846;1262;99317;-72
2023/01/13 00:29:18;;;;;;;57.50;29.70;;;;;;;1.23;83.39;98640.18;89695;1271;22728;-72
2023/01/13 00:31:20;;;;;;;51.40;28.20;;;;;;;1.21;83.41;98641.59;89900;1268;23696;-72
2023/01/13 00:33:22;;;;;;;59.50;28.60;;;;;;;1.19;83.35;98642.48;89841;1268;98359;-72
2023/01/13 00:35:24;;;;;;;55.00;29.70;;;;;;;1.16;83.31;98641.84;89880;1263;22540;-72
2023/01/13 00:37:26;;;;;;;56.10;28.30;;;;;;;1.16;83.35;98637.52;89784;1271;22520;-72
2023/01/13 00:39:28;;;;;;;54.60;29.40;;;;;;;1.15;83.33;98640.46;89863;1267;100615;-72
2023/01/13 00:43:21;;;;;;;52.40;28.40;;;;;;;1.13;83.30;98636.69;89949;1269;22560;-71
2023/01/13 00:43:51;;;;;;;;;;;;;;;1.10;83.50;98635.18;89918;1254;22576;-72
2023/01/13 00:45:53;;;;;;;57.90;30.20;;;;;;;1.08;83.50;98638.17;89906;1268;85537;-72
2023/01/13 00:47:55;;;;;;;54.60;28.50;;;;;;;1.07;83.52;98636.45;89789;1254;22562;-71
2023/01/13 00:49:56;;;;;;;58.40;29.90;;;;;;;1.04;83.41;98636.31;89557;1271;22577;-71
2023/01/13 00:51:58;;;;;;;56.80;29.40;;;;;;;1.03;83.50;98636.69;89695;1269;99182;-71
2023/01/13 00:54:00;;;;;;;53.50;27.60;;;;;;;1.02;83.55;98637.20;89700;1270;22957;-71
2023/01/13 00:56:16;;;;;;;51.50;27.40;;;;;;;1.00;83.23;98634.64;89718;1269;22603;-73
2023/01/13 00:58:18;;;;;;;50.30;26.80;;;;;;;0.93;83.32;98624.70;89988;1261;100464;-71
2023/01/13 01:00:20;;;;;;;55.00;28.90;;;;;;;0.94;83.43;98634.38;89696;1267;22582;-71
2023/01/13 01:02:21;;;;;;;53.50;29.80;;;;;;;0.94;83.55;98631.11;89611;1269;25490;-73
2023/01/13 01:04:23;;;;;;;64.10;34.90;;;;;;;0.92;83.50;98634.75;89604;1269;99262;-71
2023/01/13 01:06:26;;;;;;;60.90;34.90;;;;;;;0.92;83.48;98632.01;89627;1265;24450;-71
2023/01/13 01:08:28;;;;;;;57.60;34.90;;;;;;;0.89;83.66;98631.86;89569;1265;237456;-71
2023/01/13 01:10:29;;;;;;;64.20;35.00;;;;;;;0.87;83.51;98629.48;89660;1268;98281;-72
2023/01/13 01:12:31;;;;;;;55.70;32.10;;;;;;;0.84;83.45;98630.21;89830;1268;23897;-71
2023/01/13 01:14:32;;;;;;;59.60;32.40;;;;;;;0.83;83.59;98631.95;89729;1265;25124;-71
2023/01/13 01:16:34;;;;;;;61.20;33.00;;;;;;;0.81;83.38;98629.90;89530;1270;99442;-71
2023/01/13 01:18:38;;;;;;;53.40;31.10;;;;;;;0.80;83.71;98623.35;89585;1267;22665;-71
2023/01/13 01:20:40;;;;;;;58.00;33.50;;;;;;;0.78;83.47;98627.71;89985;1262;24206;-71
2023/01/13 01:22:42;;;;;;;55.40;31.40;;;;;;;0.76;83.31;98623.75;89628;1268;98182;-72
2023/01/13 01:24:43;;;;;;;61.60;28.90;;;;;;;0.73;83.35;98621.02;89679;1267;25945;-72
2023/01/13 01:26:45;;;;;;;51.40;29.70;;;;;;;0.71;83.58;98619.48;89617;1264;22519;-72
2023/01/13 01:28:48;;;;;;;51.90;28.90;;;;;;;0.66;83.54;98615.23;89616;1269;99649;-73
2023/01/13 01:30:50;;;;;;;53.60;29.00;;;;;;;0.63;83.38;98610.95;89916;1268;22586;-72
2023/01/13 01:32:52;;;;;;;53.90;28.90;;;;;;;0.61;83.38;98608.23;90068;1269;22521;-72
2023/01/13 01:34:53;;;;;;;55.90;30.50;;;;;;;0.61;83.50;98599.92;89792;1262;99087;-72
2023/01/13 01:36:55;;;;;;;58.30;30.40;;;;;;;0.61;83.51;98598.37;89795;1270;22780;-72
2023/01/13 01:38:58;;;;;;;49.40;30.10;;;;;;;0.60;83.65;98599.77;89953;1267;22481;-73
2023/01/13 01:41:00;;;;;;;48.70;28.00;;;;;;;0.59;83.59;98596.14;89893;1267;98116;-73
2023/01/13 01:45:24;;;;;;;56.10;32.30;;;;;;;0.58;83.57;98591.66;89751;1265;98779;-73
2023/01/13 01:47:28;;;;;;;49.40;30.40;;;;;;;0.59;83.75;98594.94;89952;1264;25531;-72
2023/01/13 01:49:32;;;;;;;49.50;30.50;;;;;;;0.60;83.78;98589.91;89988;1268;22570;-73
2023/01/13 01:51:41;;;;;;;55.80;32.10;;;;;;;0.61;83.66;98587.83;89775;1262;99211;-73
2023/01/13 01:53:43;;;;;;;55.10;33.70;;;;;;;0.62;83.84;98587.45;89951;1270;24214;-73
2023/01/13 01:55:44;;;;;;;64.00;34.50;;;;;;;0.64;83.69;98587.77;90109;1269;22597;-72
2023/01/13 01:58:00;;;;;;;80.90;35.60;;;;;;;0.66;83.75;98581.86;89853;1268;99286;-73
2023/01/13 02:00:03;;;;;;;66.80;35.60;;;;;;;0.67;83.74;98577.36;90057;1268;22649;-72
2023/01/13 02:02:05;;;;;;;58.70;36.40;;;;;;;0.69;83.89;98579.93;89827;1271;22838;-71
2023/01/13 02:04:18;;;;;;;58.90;33.30;;;;;;;0.71;83.91;98579.21;89905;1270;99661;-71
2023/01/13 02:06:20;;;;;;;67.20;37.70;;;;;;;0.73;83.89;98578.64;89993;1263;24859;-72
2023/01/13 02:08:21;;;;;;;70.10;37.80;;;;;;;0.73;84.07;98577.09;89881;1270;26715;-72
2023/01/13 02:10:26;;;;;;;57.50;34.30;;;;;;;0.74;83.80;98571.20;89853;1269;99078;-72
2023/01/13 02:12:29;;;;;;;57.40;35.00;;;;;;;0.76;83.91;98571.36;90056;1262;22561;-73
2023/01/13 02:14:32;;;;;;;67.90;34.20;;;;;;;0.77;83.77;98570.14;90008;1268;22576;-72
2023/01/13 02:16:39;;;;;;;64.20;33.00;;;;;;;0.78;84.01;98570.45;89808;1270;99262;-72
2023/01/13 02:19:01;;;;;;;61.40;34.20;;;;;;;0.79;83.95;98563.16;90029;1262;22748;-72
2023/01/13 02:21:28;;;;;;;54.50;33.10;;;;;;;0.80;84.10;98558.85;90055;1265;24210;-72
2023/01/13 02:26:47;;;;;;;55.70;30.30;;;;;;;0.80;83.99;98562.48;89962;1260;25194;-72
2023/01/13 02:31:53;;;;;;;49.30;29.80;;;;;;;0.76;83.93;98551.64;90072;1268;23936;-72
2023/01/13 02:34:06;;;;;;;59.10;30.90;;;;;;;0.76;83.80;98555.10;90076;1267;98019;-72
2023/01/13 02:36:37;;;;;;;59.20;29.90;;;;;;;0.77;84.04;98555.92;89971;1270;22590;-72
2023/01/13 02:38:56;;;;;;;52.40;28.40;;;;;;;0.78;84.20;98559.73;89906;1270;22537;-72
2023/01/13 02:46:14;;;;;;;48.70;28.90;;;;;;;0.83;84.25;98548.41;89960;1268;99143;-72
2023/01/13 02:48:19;;;;;;;44.30;28.00;;;;;;;0.84;84.26;98538.37;90001;1268;25446;-73
2023/01/13 02:50:34;;;;;;;47.80;27.60;;;;;;;0.83;83.99;98537.86;89859;1271;22793;-72
2023/01/13 02:52:41;;;;;;;43.50;26.90;;;;;;;0.83;84.05;98537.17;89991;1268;99053;-72
2023/01/13 02:54:51;;;;;;;49.70;28.90;;;;;;;0.83;84.03;98538.55;90032;1262;23045;-73
2023/01/13 02:56:54;;;;;;;46.20;27.90;;;;;;;0.82;83.98;98539.79;89897;1269;22584;-73
2023/01/13 02:58:58;;;;;;;46.10;25.40;;;;;;;0.81;84.13;98535.83;90023;1262;98510;-72
2023/01/13 03:01:00;;;;;;;46.00;26.40;;;;;;;0.79;84.09;98529.45;90096;1268;24281;-72
2023/01/13 03:03:02;;;;;;;35.60;22.70;;;;;;;0.79;84.18;98530.48;90046;1253;22780;-72
2023/01/13 03:05:05;;;;;;;48.00;24.30;;;;;;;0.77;84.29;98527.77;89878;1269;99085;-72
2023/01/13 03:07:32;;;;;;;36.20;22.80;;;;;;;0.76;84.10;98529.67;90018;1265;24150;-71
2023/01/13 03:09:54;;;;;;;38.50;22.10;;;;;;;0.74;84.21;98526.75;89978;1268;98133;-71
2023/01/13 03:12:18;;;;;;;34.10;22.20;;;;;;;0.71;84.04;98528.88;90090;1267;22732;-71
2023/01/13 03:14:34;;;;;;;37.60;23.00;;;;;;;0.69;83.99;98524.59;90003;1269;22884;-73
2023/01/13 03:17:04;;;;;;;32.70;21.90;;;;;;;0.68;84.01;98519.60;89831;1264;98222;-72
2023/01/13 03:19:11;;;;;;;33.40;21.60;;;;;;;0.67;84.26;98510.44;90140;1269;24016;-72
2023/01/13 03:21:31;;;;;;;37.60;22.60;;;;;;;0.66;84.04;98511.31;90080;1262;22757;-73
2023/01/13 03:23:49;;;;;;;33.80;20.30;;;;;;;0.67;84.41;98506.64;90084;1265;22622;-72
2023/01/13 03:26:15;;;;;;;32.60;19.90;;;;;;;0.66;84.20;98507.02;90069;1267;22924;-71
2023/01/13 03:28:27;;;;;;;32.60;20.60;;;;;;;0.65;84.22;98509.11;89994;1270;98146;-72
2023/01/13 03:30:32;;;;;;;30.30;20.10;;;;;;;0.65;84.16;98515.14;90109;1267;22519;-72
2023/01/13 03:32:44;;;;;;;32.60;22.10;;;;;;;0.63;84.39;98509.29;90137;1253;22806;-72
2023/01/13 03:34:50;;;;;;;35.10;21.80;;;;;;;0.66;84.45;98513.05;89976;1268;98163;-72
2023/01/13 03:36:56;;;;;;;32.10;22.50;;;;;;;0.68;84.33;98506.82;90157;1267;22542;-72
2023/01/13 03:39:04;;;;;;;35.20;20.20;;;;;;;0.71;84.39;98510.73;90013;1266;22839;-73
2023/01/13 03:41:13;;;;;;;41.80;21.70;;;;;;;0.71;84.35;98506.58;90052;1268;98658;-72
2023/01/13 03:45:45;;;;;;;31.60;19.90;;;;;;;0.75;84.35;98508.25;90098;1267;99154;-73
2023/01/13 03:47:54;;;;;;;35.20;20.90;;;;;;;0.76;84.44;98506.16;90091;1267;25856;-72
2023/01/13 03:50:26;;;;;;;30.90;20.70;;;;;;;0.76;84.38;98500.96;90046;1269;22979;-72
2023/01/13 03:52:33;;;;;;;32.10;22.00;;;;;;;0.79;84.48;98497.64;90010;1263;97979;-72
2023/01/13 03:54:43;;;;;;;33.00;21.90;;;;;;;0.82;84.62;98499.83;90232;1267;22501;-72
2023/01/13 03:56:50;;;;;;;37.00;23.90;;;;;;;0.85;84.57;98499.60;90049;1263;22801;-72
2023/01/13 03:58:53;;;;;;;36.40;22.40;;;;;;;0.89;84.62;98496.09;89970;1262;99260;-72
2023/01/13 04:01:04;;;;;;;37.60;23.90;;;;;;;0.93;85.02;98497.23;89989;1268;25470;-72
2023/01/13 04:03:13;;;;;;;35.00;23.50;;;;;;;0.95;84.67;98498.75;90202;1262;24212;-72
2023/01/13 04:05:16;;;;;;;44.70;23.10;;;;;;;0.99;84.68;98498.86;89996;1268;100276;-73
2023/01/13 04:07:21;;;;;;;31.00;21.50;;;;;;;1.01;84.61;98498.30;90045;1271;22615;-72
2023/01/13 04:09:42;;;;;;;38.80;23.90;;;;;;;1.04;84.60;98497.91;90102;1267;100019;-73
2023/01/13 04:11:48;;;;;;;;;;;;;;;1.08;84.61;98494.90;90129;1265;22746;-72
2023/01/13 04:13:52;;;;;;;39.10;22.30;;;;;;;1.10;84.63;98491.21;90135;1269;22680;-71
2023/01/13 04:15:54;;;;;;;35.30;22.80;;;;;;;1.11;84.82;98493.80;90005;1268;98098;-71
2023/01/13 04:18:26;;;;;;;32.10;22.20;;;;;;;1.13;84.79;98492.55;90130;1261;22618;-72
2023/01/13 04:20:28;;;;;;;37.00;20.40;;;;;;;1.16;84.74;98493.02;90359;1262;22550;-72
2023/01/13 04:22:30;;;;;;;33.10;20.50;;;;;;;1.17;84.35;98497.16;90006;1262;101378;-72
2023/01/13 04:24:31;;;;;;;28.00;19.60;;;;;;;1.17;84.56;98494.55;90098;1269;22650;-72
2023/01/13 04:26:33;;;;;;;31.10;21.20;;;;;;;1.17;84.46;98493.50;90126;1269;23081;-72
2023/01/13 04:28:34;;;;;;;31.20;20.10;;;;;;;1.18;84.70;98489.52;90047;1269;99222;-72
2023/01/13 04:30:37;;;;;;;28.90;19.40;;;;;;;1.19;84.71;98490.70;90084;1262;25352;-72
2023/01/13 04:32:38;;;;;;;27.40;18.70;;;;;;;1.19;84.63;98489.84;89991;1263;22520;-72
2023/01/13 04:34:40;;;;;;;31.90;20.10;;;;;;;1.21;84.69;98491.57;90037;1267;98000;-72
2023/01/13 04:36:43;;;;;;;27.30;18.80;;;;;;;1.21;84.61;98492.08;90029;1269;22669;-72
2023/01/13 04:38:45;;;;;;;29.40;19.60;;;;;;;1.21;84.67;98495.71;90092;1268;23378;-73
2023/01/13 04:40:47;;;;;;;31.80;18.30;;;;;;;1.23;84.82;98498.44;90018;1265;98004;-74
2023/01/13 04:42:49;;;;;;;38.30;20.10;;;;;;;1.23;84.86;98504.48;90058;1267;22655;-72
2023/01/13 04:44:50;;;;;;;32.80;19.60;;;;;;;1.25;84.85;98504.11;89922;1269;22563;-72
2023/01/13 04:46:53;;;;;;;35.40;21.80;;;;;;;1.28;84.71;98504.05;89844;1271;98216;-73
2023/01/13 04:48:54;;;;;;;33.30;22.30;;;;;;;1.30;84.81;98502.65;89986;1262;23160;-73
2023/01/13 04:50:56;;;;;;;34.60;23.30;;;;;;;1.32;84.62;98507.44;90078;1267;22552;-72
2023/01/13 04:53:00;;;;;;;48.80;23.70;;;;;;;1.34;84.81;98503.08;89870;1269;98347;-72
2023/01/13 04:55:01;;;;;;;43.60;23.10;;;;;;;1.36;84.77;98499.41;90137;1269;23036;-72
2023/01/13 04:57:03;;;;;;;34.70;22.30;;;;;;;1.37;84.86;98501.28;90083;1268;22604;-72
2023/01/13 04:59:04;;;;;;;41.40;23.70;;;;;;;1.38;84.61;98499.03;90082;1269;98372;-72
2023/01/13 05:01:06;;;;;;;33.30;22.90;;;;;;;1.39;84.93;98498.82;90019;1265;22588;-72
2023/01/13 05:03:08;;;;;;;35.70;24.20;;;;;;;1.41;84.84;98498.95;89990;1263;22564;-73
2023/01/13 05:05:10;;;;;;;33.20;21.80;;;;;;;1.42;84.83;98495.13;89994;1269;97986;-73
2023/01/13 05:07:14;;;;;;;38.50;23.00;;;;;;;1.42;84.95;98497.38;89910;1271;22747;-72
2023/01/13 05:09:16;;;;;;;35.80;23.10;;;;;;;1.43;84.74;98498.92;90136;1262;22638;-72
2023/01/13 05:18:20;;;;;;;40.20;22.30;;;;;;;1.48;84.93;98512.50;90038;1265;22622;-72
2023/01/13 05:20:23;;;;;;;39.10;22.20;;;;;;;1.50;84.79;98514.21;89956;1264;22618;-72
2023/01/13 05:27:05;;;;;;;45.70;26.00;;;;;;;1.51;84.91;98507.78;89977;1261;21895;-71
2023/01/13 05:29:07;;;;;;;35.00;23.40;;;;;;;1.51;84.74;98507.26;90021;1264;98509;-72
2023/01/13 05:31:10;;;;;;;35.60;22.60;;;;;;;1.50;84.77;98505.19;89969;1265;22793;-73
2023/01/13 05:33:16;;;;;;;33.40;22.70;;;;;;;1.50;84.75;98505.54;89959;1268;22869;-72
2023/01/13 05:35:18;;;;;;;31.10;22.70;;;;;;;1.50;85.04;98505.02;90078;1261;22535;-72
2023/01/13 05:37:20;;;;;;;38.70;23.00;;;;;;;1.50;84.89;98504.32;90136;1268;22558;-73
2023/01/13 05:39:21;;;;;;;38.50;23.70;;;;;;;1.53;84.88;98509.83;90008;1269;98183;-73
2023/01/13 05:43:43;;;;;;;50.00;23.40;;;;;;;1.57;84.99;98513.05;90001;1262;24203;-73
2023/01/13 05:46:04;;;;;;;42.50;23.40;;;;;;;1.58;85.33;98509.73;89833;1265;98140;-73
2023/01/13 05:48:05;;;;;;;41.50;22.00;;;;;;;1.60;85.00;98501.39;90106;1266;22672;-73
2023/01/13 05:50:08;;;;;;;34.70;22.60;;;;;;;1.58;85.01;98500.55;90094;1269;22554;-73
2023/01/13 05:52:09;;;;;;;40.80;22.90;;;;;;;1.59;85.08;98498.09;89922;1269;100525;-73
2023/01/13 05:54:11;;;;;;;37.90;22.20;;;;;;;1.60;85.27;98498.95;90056;1262;25525;-72
2023/01/13 05:56:13;;;;;;;41.90;25.70;;;;;;;1.60;85.23;98503.64;89869;1270;22615;-73
2023/01/13 05:58:17;;;;;;;87.00;40.20;;;;;;;1.61;85.30;98504.66;89869;1269;99376;-72
2023/01/13 06:00:19;;;;;;;89.90;44.40;;;;;;;1.62;85.12;98507.56;90243;1271;22677;-73
2023/01/13 06:02:20;;;;;;;92.80;45.10;;;;;;;1.64;85.19;98508.05;90044;1269;22605;-73
2023/01/13 06:04:22;;;;;;;88.80;42.10;;;;;;;1.66;85.21;98511.14;89933;1271;99489;-73
2023/01/13 06:06:24;;;;;;;70.40;36.70;;;;;;;1.68;85.21;98505.73;89890;1270;25027;-73
2023/01/13 06:08:26;;;;;;;66.50;35.70;;;;;;;1.70;85.13;98507.06;89834;1270;22680;-73
2023/01/13 06:10:28;;;;;;;63.90;33.50;;;;;;;1.72;85.19;98508.41;90079;1269;99349;-72
2023/01/13 06:12:30;;;;;;;63.20;32.30;;;;;;;1.74;85.37;98507.50;90109;1268;22573;-75
2023/01/13 06:14:41;;;;;;;71.80;33.20;;;;;;;1.76;85.55;98511.29;90058;1269;24224;-73
2023/01/13 06:16:44;;;;;;;70.10;34.20;;;;;;;1.77;85.21;98510.20;89871;1271;98209;-73
2023/01/13 06:18:46;;;;;;;75.10;33.30;;;;;;;1.79;85.47;98514.17;89878;1270;22611;-71
2023/01/13 06:20:48;;;;;;;62.90;34.40;;;;;;;1.80;85.05;98512.58;90064;1262;22759;-73
2023/01/13 06:22:52;;;;;;;62.60;34.90;;;;;;;1.83;85.12;98513.91;90042;1268;98926;-73
2023/01/13 06:24:53;;;;;;;60.10;33.20;;;;;;;1.85;85.41;98515.94;90134;1257;24340;-73
2023/01/13 06:26:55;;;;;;;60.50;32.40;;;;;;;1.87;85.37;98511.92;89845;1272;22629;-72
2023/01/13 06:28:57;;;;;;;56.60;30.10;;;;;;;1.89;85.30;98514.83;89995;1268;99212;-73
2023/01/13 06:31:04;;;;;;;62.20;31.10;;;;;;;1.91;85.40;98512.02;89994;1269;22517;-73
2023/01/13 06:33:12;;;;;;;52.60;29.00;;;;;;;1.93;85.39;98510.73;90072;1262;22640;-72
2023/01/13 06:35:19;;;;;;;52.70;29.30;;;;;;;1.96;85.73;98512.60;89863;1271;99073;-72
2023/01/13 06:37:24;;;;;;;45.80;27.60;;;;;;;1.98;85.30;98513.42;90408;1270;22526;-73
2023/01/13 06:39:29;;;;;;;49.80;26.50;;;;;;;2.00;85.46;98516.34;89930;1268;99549;-74
2023/01/13 06:43:52;;;;;;;45.40;26.90;;;;;;;2.06;85.20;98518.27;90003;1269;25428;-73
2023/01/13 06:45:55;;;;;;;52.10;27.30;;;;;;;2.07;85.33;98516.19;89928;1267;99289;-73
2023/01/13 06:47:58;;;;;;;46.20;26.00;;;;;;;2.09;85.41;98512.34;89942;1269;22944;-73
2023/01/13 06:50:00;;;;;;;46.30;27.70;;;;;;;2.10;85.42;98513.86;89894;1271;22782;-73
2023/01/13 06:52:02;;;;;;;51.50;24.60;;;;;;;2.12;85.36;98513.83;90012;1269;99350;-73
2023/01/13 06:54:04;;;;;;;40.10;22.30;;;;;;;2.12;85.62;98506.38;90036;1270;25458;-73
2023/01/13 06:56:06;;;;;;;29.60;16.30;;;;;;;2.19;85.65;98510.91;90012;1268;22561;-73
2023/01/13 06:58:07;;;;;;;21.00;14.10;;;;;;;2.24;85.66;98507.68;89774;1269;99395;-73
2023/01/13 07:00:11;;;;;;;24.80;13.60;;;;;;;2.31;85.87;98509.25;90074;1265;22553;-73
2023/01/13 07:02:13;;;;;;;13.50;10.70;;;;;;;2.40;85.86;98508.00;90035;1268;22580;-72
2023/01/13 07:04:14;;;;;;;18.40;11.40;;;;;;;2.51;86.02;98511.56;89494;1271;99202;-72
2023/01/13 07:06:16;;;;;;;14.30;10.10;;;;;;;2.62;86.25;98508.88;89911;1262;22608;-72
2023/01/13 07:08:18;;;;;;;12.60;8.80;;;;;;;2.71;85.95;98510.08;89710;1269;25512;-73
2023/01/13 07:10:21;;;;;;;11.40;7.90;;;;;;;2.81;85.88;98512.61;89627;1269;99789;-73
2023/01/13 07:12:23;;;;;;;14.80;7.50;;;;;;;2.86;86.08;98504.69;89820;1265;22529;-72
2023/01/13 07:16:45;;;;;;;10.90;7.30;;;;;;;3.16;86.02;98516.95;89648;1267;99093;-72
2023/01/13 07:18:47;;;;;;;12.30;7.60;;;;;;;3.24;85.94;98517.25;89582;1270;22534;-73
2023/01/13 07:20:57;;;;;;;14.20;8.00;;;;;;;3.33;85.75;98514.77;89854;1265;22857;-73
2023/01/13 07:22:59;;;;;;;12.20;7.60;;;;;;;3.42;86.07;98516.96;89787;1268;99818;-73
2023/01/13 07:25:00;;;;;;;11.00;6.60;;;;;;;3.50;85.80;98515.19;89770;1262;22516;-73
2023/01/13 07:27:02;;;;;;;7.70;6.60;;;;;;;3.57;85.67;98513.08;89816;1267;25077;-73
2023/01/13 07:29:04;;;;;;;11.60;7.40;;;;;;;3.65;85.82;98511.49;89661;1269;97941;-73
2023/01/13 07:31:13;;;;;;;6.40;5.10;;;;;;;3.75;85.92;98514.50;89766;1269;22562;-72
2023/01/13 07:33:17;;;;;;;6.40;5.80;;;;;;;3.88;85.83;98511.72;89909;1262;22734;-72
2023/01/13 07:35:21;;;;;;;8.70;5.00;;;;;;;4.00;85.93;98510.30;90143;1268;22498;-72
2023/01/13 07:37:23;;;;;;;10.00;5.80;;;;;;;4.17;85.91;98512.27;89692;1269;24218;-72
2023/01/13 07:39:25;;;;;;;5.60;5.00;;;;;;;4.29;85.60;98512.95;89609;1269;99823;-73
2023/01/13 07:43:47;;;;;;;10.70;5.20;;;;;;;4.49;85.60;98507.98;89791;1269;24356;-73
2023/01/13 07:45:54;;;;;;;10.80;5.00;;;;;;;4.56;85.40;98506.36;89588;1265;98161;-72
2023/01/13 07:47:56;;;;;;;6.80;4.80;;;;;;;4.65;85.38;98507.70;89373;1264;22585;-71
2023/01/13 07:49:57;;;;;;;8.10;5.00;;;;;;;4.72;85.35;98509.35;89403;1271;22615;-72
2023/01/13 07:51:59;;;;;;;6.90;4.70;;;;;;;4.80;85.41;98504.07;89468;1269;99073;-72
2023/01/13 07:54:01;;;;;;;5.40;4.30;;;;;;;4.90;85.26;98504.27;89603;1269;22546;-72
2023/01/13 07:56:05;;;;;;;9.00;4.40;;;;;;;4.98;85.18;98500.16;89472;1269;23060;-73
2023/01/13 07:58:08;;;;;;;15.00;5.00;;;;;;;5.06;85.06;98504.08;89359;1265;98989;-72
2023/01/13 08:00:10;;;;;;;9.10;4.50;;;;;;;5.13;84.99;98508.73;89581;1269;22524;-72
2023/01/13 08:02:12;;;;;;;11.30;4.90;;;;;;;5.17;84.94;98506.33;89449;1270;23050;-73
2023/01/13 08:04:14;;;;;;;10.00;5.20;;;;;;;5.21;84.91;98506.55;89498;1267;97823;-72
2023/01/13 08:06:16;;;;;;;14.30;6.00;;;;;;;5.25;84.91;98510.06;89485;1271;23543;-73
2023/01/13 08:08:18;;;;;;;6.50;5.10;;;;;;;5.29;84.82;98511.14;89714;1257;22680;-72
2023/01/13 08:10:20;;;;;;;6.00;5.20;;;;;;;5.34;84.71;98515.34;89553;1265;97966;-72
2023/01/13 08:14:42;;;;;;;7.70;5.00;;;;;;;5.40;84.80;98510.93;89782;1268;22570;-72
2023/01/13 08:16:44;;;;;;;9.80;4.90;;;;;;;5.46;84.79;98512.31;89638;1269;98694;-73
2023/01/13 08:18:45;;;;;;;6.60;4.80;;;;;;;5.51;84.80;98510.73;89645;1268;25427;-71
2023/01/13 08:20:51;;;;;;;6.50;4.60;;;;;;;5.57;84.74;98499.36;89529;1270;22559;-72
2023/01/13 08:22:57;;;;;;;4.20;3.80;;;;;;;5.68;84.70;98487.13;89631;1269;98722;-72
2023/01/13 08:24:59;;;;;;;6.70;4.50;;;;;;;5.76;84.59;98487.02;89809;1260;22557;-72
2023/01/13 08:27:01;;;;;;;4.60;4.20;;;;;;;5.82;84.50;98492.73;89550;1270;22584;-73
2023/01/13 08:29:02;;;;;;;6.30;4.40;;;;;;;5.88;84.49;98501.06;89661;1253;98739;-74
2023/01/13 08:31:06;;;;;;;9.70;4.00;;;;;;;5.92;84.35;98490.07;89382;1272;22642;-72
2023/01/13 08:33:10;;;;;;;5.80;4.30;;;;;;;5.97;84.27;98489.58;89608;1269;25967;-72
2023/01/13 08:35:11;;;;;;;8.80;3.60;;;;;;;6.02;84.46;98494.98;89432;1265;97497;-71
2023/01/13 08:37:13;;;;;;;4.10;3.20;;;;;;;6.09;84.30;98491.95;89561;1268;22575;-71
2023/01/13 08:39:15;;;;;;;6.20;3.60;;;;;;;6.12;84.39;98478.21;89408;1265;22667;-72
2023/01/13 08:41:53;;;;;;;3.70;3.40;;;;;;;6.28;84.18;98492.27;89380;1269;97485;-73
2023/01/13 08:43:38;;;;;;;;;;;;;;;6.37;84.16;98489.48;89684;1262;22527;-71
2023/01/13 08:45:40;;;;;;;4.50;3.40;;;;;;;6.37;83.98;98484.39;89416;1271;85433;-72
2023/01/13 08:47:42;;;;;;;3.30;3.00;;;;;;;6.49;84.02;98493.00;89463;1269;22540;-70
2023/01/13 08:49:43;;;;;;;3.50;3.20;;;;;;;6.56;83.79;98486.98;89517;1256;22575;-72
2023/01/13 08:51:45;;;;;;;4.80;3.70;;;;;;;6.62;83.66;98485.17;89132;1270;97796;-71
2023/01/13 08:53:47;;;;;;;4.80;3.60;;;;;;;6.68;83.59;98484.23;89518;1269;24276;-73
2023/01/13 08:55:49;;;;;;;5.80;3.80;;;;;;;6.75;83.43;98486.07;89364;1265;24395;-73
2023/01/13 08:57:50;;;;;;;4.30;3.80;;;;;;;6.80;83.59;98484.82;89588;1269;98168;-72
2023/01/13 08:59:52;;;;;;;7.20;3.20;;;;;;;6.84;83.30;98487.41;89479;1265;22541;-71
2023/01/13 09:01:54;;;;;;;4.30;3.30;;;;;;;6.91;83.59;98490.80;89516;1268;22572;-72
2023/01/13 09:03:55;;;;;;;8.70;2.90;;;;;;;6.98;83.31;98492.80;89734;1269;99074;-72
2023/01/13 09:05:57;;;;;;;4.60;3.10;;;;;;;7.05;83.14;98500.19;90055;1271;22724;-72
2023/01/13 09:07:59;;;;;;;3.70;3.30;;;;;;;7.10;83.36;98496.48;90466;1270;22483;-73
2023/01/13 09:10:01;;;;;;;3.60;3.30;;;;;;;7.14;83.16;98495.10;90241;1272;97633;-72
2023/01/13 09:14:27;;;;;;;3.60;3.30;;;;;;;7.23;83.14;98498.56;90367;1268;22579;-72
2023/01/13 09:16:29;;;;;;;9.30;3.70;;;;;;;7.27;82.83;98501.20;90128;1274;98947;-72
2023/01/13 09:18:30;;;;;;;3.80;2.80;;;;;;;7.33;82.97;98505.12;90581;1269;22810;-72
2023/01/13 09:20:32;;;;;;;3.80;3.10;;;;;;;7.44;83.01;98499.77;90311;1268;22568;-71
2023/01/13 09:22:36;;;;;;;3.40;3.10;;;;;;;7.56;82.69;98502.08;90342;1264;97865;-72
2023/01/13 09:24:38;;;;;;;4.20;2.90;;;;;;;7.69;82.63;98499.38;90311;1269;22753;-71
2023/01/13 09:26:40;;;;;;;3.70;3.10;;;;;;;7.79;82.40;98496.33;90126;1262;23374;-74
2023/01/13 09:28:41;;;;;;;6.00;3.50;;;;;;;7.87;82.43;98489.33;89841;1268;97873;-73
2023/01/13 09:30:43;;;;;;;6.50;3.80;;;;;;;7.93;82.49;98494.12;90041;1271;22644;-73
2023/01/13 09:32:45;;;;;;;3.10;2.70;;;;;;;7.97;82.11;98486.27;90223;1269;23118;-73
2023/01/13 09:34:59;;;;;;;4.00;2.90;;;;;;;7.98;82.01;98487.06;90319;1265;98261;-72
2023/01/13 09:37:03;;;;;;;3.40;2.90;;;;;;;8.00;81.85;98486.99;90211;1269;22539;-72
2023/01/13 09:39:04;;;;;;;3.70;3.00;;;;;;;8.01;81.77;98485.73;90037;1261;23513;-73
2023/01/13 09:43:52;;;;;;;2.80;2.50;;;;;;;8.01;81.89;98490.79;90023;1270;98307;-71
2023/01/13 09:43:53;;;;;;;5.90;2.80;;;;;;;8.02;81.73;98489.70;90173;1265;22613;-73
2023/01/13 09:48:51;;;;;;;6.60;2.90;;;;;;;8.02;81.66;98481.29;90655;1268;22538;-78
2023/01/13 09:51:02;;;;;;;3.60;3.30;;;;;;;8.03;81.64;98476.71;90518;1269;22486;-77
2023/01/13 09:53:11;;;;;;;7.70;2.90;;;;;;;8.04;81.61;98473.70;90674;1263;97633;-78
2023/01/13 09:55:35;;;;;;;4.90;3.10;;;;;;;8.04;81.59;98474.05;90601;1262;22480;-78
2023/01/13 09:57:38;;;;;;;5.10;3.80;;;;;;;8.05;81.38;98467.73;90405;1262;98092;-76
2023/01/13 09:59:41;;;;;;;9.80;3.60;;;;;;;8.06;81.84;98467.67;90495;1262;22573;-77
2023/01/13 10:01:58;;;;;;;3.60;3.30;;;;;;;8.07;81.44;98463.06;90348;1270;22743;-77
2023/01/13 10:04:11;;;;;;;3.20;2.70;;;;;;;8.08;81.49;98460.36;90489;1269;97601;-77
2023/01/13 10:06:37;;;;;;;8.60;3.50;;;;;;;8.10;81.61;98458.02;90494;1270;22887;-78
2023/01/13 10:08:43;;;;;;;3.40;3.10;;;;;;;8.10;81.58;98458.18;90630;1269;24321;-80
2023/01/13 10:10:49;;;;;;;3.50;2.80;;;;;;;8.12;81.35;98457.77;90541;1269;98005;-75
2023/01/13 10:15:18;;;;;;;7.80;2.90;;;;;;;8.17;81.42;98454.05;90636;1261;22533;-78
2023/01/13 10:17:43;;;;;;;5.60;3.20;;;;;;;8.19;81.21;98450.05;90728;1269;23450;-78
2023/01/13 10:20:10;;;;;;;7.30;3.10;;;;;;;8.25;81.15;98446.13;90583;1268;25497;-77
2023/01/13 10:23:12;;;;;;;4.70;3.20;;;;;;;8.35;81.23;98442.52;90377;1268;97674;-77
2023/01/13 10:25:19;;;;;;;3.70;3.10;;;;;;;8.46;81.18;98439.72;89924;1268;22541;-78
2023/01/13 10:27:30;;;;;;;5.30;3.70;;;;;;;8.54;81.34;98436.92;89945;1281;97752;-78
2023/01/13 10:29:32;;;;;;;3.20;2.60;;;;;;;8.59;80.91;98439.98;89071;1275;24173;-75
2023/01/13 10:31:33;;;;;;;5.60;2.80;;;;;;;8.63;80.75;98436.83;88985;1281;22676;-74
2023/01/13 10:33:36;;;;;;;5.00;2.70;;;;;;;8.66;80.46;98438.03;88853;1282;97752;-73
2023/01/13 10:35:52;;;;;;;4.80;3.60;;;;;;;8.70;80.63;98433.85;88923;1279;22616;-74